West Branch Of The Westfield River @ Huntington, Ma

W. B. Westfield River at Huntington
 Total Drainage Area: 94 sq. miles 
 Drainage Area Controlled by Corps Dams: 0 sq. miles (0%) 
 Warning Flow/Stage: 2,810 cfs / 7.5 feet 
 Flood Flow/Stage: 5,900 cfs / 9.0 feet 
Date Time
(Eastern)
Stage
(ft)
Flow
(cfs)
CSM
May-28 12:30 pm 3.81 87 .9
May-28 11:30 am 3.81 87 .9
May-28 10:30 am 3.80 85 .9
May-28 09:30 am 3.79 83 .9
May-28 08:30 am 3.76 78 .8
May-28 07:30 am 3.74 75 .8
May-28 06:30 am 3.73 74 .8
May-28 05:30 am 3.72 72 .8
May-28 04:30 am 3.71 70 .8
May-28 03:30 am 3.71 70 .8
May-28 02:30 am 3.68 66 .7
May-28 01:30 am 3.68 66 .7
May-28 12:30 am 3.67 65 .7
May-27 11:30 pm 3.63 59 .6
May-27 10:30 pm 3.61 56 .6
May-27 09:30 pm 3.60 55 .6
May-27 08:30 pm 3.59 54 .6
May-27 07:30 pm 3.57 52 .6
May-27 06:30 pm 3.57 52 .6
May-27 05:30 pm 3.58 53 .6
May-27 04:30 pm 3.58 53 .6
May-27 03:30 pm 3.58 53 .6
May-27 02:30 pm 3.58 53 .6
May-27 01:30 pm 3.59 54 .6
May-27 12:30 pm 3.59 54 .6
Report Generated May 28, 2022 04:51 pm